Terminal Aerodrome Forecast
Issued by NWS Northern Indiana

Home | Current Version | Previous Version | Text Only | Print | Product List | Glossary On
Versions: 1 2 3 4 5 6 7 8 9 10 11 12 13 14 15 16 17
220
FTUS43 KIWX 082320
TAFFWA
TAF
KFWA 082320Z 0900/0924 27014G22KT P6SM -SHSN OVC025
     FM090200 27012KT P6SM -SHSN OVC015
     FM091500 27011KT P6SM OVC025=

USA.gov is the U.S. government's official web portal to all federal, state and local government web resources and services.